Time;durP1;ratioP1;P1;durP2;ratioP2;P2;SDS_P1;SDS_P2;PMS_P1;PMS_P2;Temp;Humidity;BMP_temperature;BMP_pressure;BME280_temperature;BME280_humidity;BME280_pressure;Samples;Min_cycle;Max_cycle;Signal;HPM_P1;HPM_P2
2021/03/16 00:02:03;;;;;;;9.57;4.40;;;4.40;99.90;;;;;;5120895;28;20477;-66
2021/03/16 00:04:32;;;;;;;4.67;3.00;;;4.40;99.90;;;;;;5122185;28;20410;-68
2021/03/16 00:07:23;;;;;;;5.63;2.87;;;4.40;99.90;;;;;;5112774;28;20438;-68
2021/03/16 00:09:50;;;;;;;7.63;3.30;;;4.40;99.90;;;;;;5104069;28;20475;-66
2021/03/16 00:12:18;;;;;;;6.00;3.70;;;4.30;99.90;;;;;;5122165;28;20496;-66
2021/03/16 00:14:46;;;;;;;3.50;3.20;;;4.40;99.90;;;;;;5121746;28;20420;-68
2021/03/16 00:17:14;;;;;;;4.03;3.67;;;4.30;99.90;;;;;;5100999;28;20467;-66
2021/03/16 00:19:42;;;;;;;4.00;3.47;;;4.30;99.90;;;;;;5121513;28;20458;-66
2021/03/16 00:22:10;;;;;;;7.50;3.93;;;4.30;99.90;;;;;;5120936;28;20428;-65
2021/03/16 00:24:38;;;;;;;7.80;4.00;;;4.30;99.90;;;;;;5120538;28;20451;-66
2021/03/16 00:27:07;;;;;;;9.63;3.80;;;4.30;99.90;;;;;;5120957;28;20818;-66
2021/03/16 00:29:34;;;;;;;5.00;3.40;;;4.40;99.90;;;;;;5102573;28;20496;-66
2021/03/16 00:32:02;;;;;;;10.90;3.63;;;4.40;99.90;;;;;;5101952;28;20562;-66
2021/03/16 00:34:30;;;;;;;5.70;3.50;;;4.40;99.90;;;;;;5120463;28;20428;-66
2021/03/16 00:36:59;;;;;;;5.33;4.27;;;4.40;99.90;;;;;;5101616;28;20406;-67
2021/03/16 00:39:27;;;;;;;6.00;3.77;;;4.50;99.90;;;;;;5116869;28;20410;-68
2021/03/16 00:41:54;;;;;;;5.20;3.60;;;4.40;99.90;;;;;;5101401;28;20489;-66
2021/03/16 00:44:22;;;;;;;9.23;3.80;;;4.40;99.90;;;;;;5120329;28;20515;-65
2021/03/16 00:46:49;;;;;;;4.60;3.57;;;4.40;99.90;;;;;;5121532;28;20856;-66
2021/03/16 00:49:17;;;;;;;7.70;3.80;;;4.50;99.90;;;;;;5104566;28;20436;-65
2021/03/16 00:51:44;;;;;;;3.80;3.13;;;4.50;99.90;;;;;;5095306;28;20467;-66
2021/03/16 00:54:13;;;;;;;8.07;4.13;;;4.50;99.90;;;;;;5132471;28;20492;-65
2021/03/16 00:56:41;;;;;;;5.63;3.70;;;4.50;99.90;;;;;;5122869;28;20416;-65
2021/03/16 00:59:12;;;;;;;4.47;3.60;;;4.50;99.90;;;;;;5122376;28;20980;-65
2021/03/16 01:01:41;;;;;;;6.30;4.13;;;4.50;99.90;;;;;;5087246;28;20479;-67
2021/03/16 01:04:08;;;;;;;8.30;4.47;;;4.40;99.90;;;;;;5081476;28;20447;-66
2021/03/16 01:06:36;;;;;;;4.80;4.00;;;4.40;99.90;;;;;;5100003;28;20469;-67
2021/03/16 01:09:03;;;;;;;6.17;4.13;;;4.50;99.90;;;;;;5099341;28;20533;-67
2021/03/16 01:11:32;;;;;;;5.00;3.33;;;4.50;99.90;;;;;;5099510;28;20557;-66
2021/03/16 01:14:00;;;;;;;8.03;4.03;;;4.60;99.90;;;;;;5098302;28;20440;-66
2021/03/16 01:16:27;;;;;;;7.27;4.20;;;4.60;99.90;;;;;;5098904;28;20480;-66
2021/03/16 01:18:55;;;;;;;9.50;4.00;;;4.60;99.90;;;;;;5118257;28;21063;-66
2021/03/16 01:21:22;;;;;;;6.73;4.27;;;4.60;99.90;;;;;;5118303;28;20819;-66
2021/03/16 01:23:50;;;;;;;7.30;4.80;;;4.60;99.90;;;;;;5100968;28;20534;-66
2021/03/16 01:26:18;;;;;;;4.93;3.77;;;4.50;99.90;;;;;;5119146;28;20811;-67
2021/03/16 01:28:46;;;;;;;5.63;3.50;;;4.50;99.90;;;;;;5100563;28;20408;-67
2021/03/16 01:31:15;;;;;;;4.20;3.43;;;4.50;99.90;;;;;;5108898;28;20488;-68
2021/03/16 01:33:43;;;;;;;11.83;4.50;;;4.60;99.90;;;;;;5102609;28;20455;-66
2021/03/16 01:36:11;;;;;;;9.80;4.57;;;4.40;99.90;;;;;;5103010;28;20411;-66
2021/03/16 01:38:39;;;;;;;3.97;3.57;;;4.40;99.90;;;;;;5102633;28;20433;-66
2021/03/16 01:41:06;;;;;;;5.93;3.30;;;4.40;99.90;;;;;;5103820;28;20436;-66
2021/03/16 01:43:33;;;;;;;8.27;3.90;;;4.40;99.90;;;;;;5102478;28;20429;-66
2021/03/16 01:46:04;;;;;;;5.13;3.60;;;4.40;99.90;;;;;;5104606;28;20475;-66
2021/03/16 01:48:34;;;;;;;3.40;3.10;;;4.40;99.90;;;;;;5118228;28;20849;-66
2021/03/16 01:51:03;;;;;;;5.13;3.30;;;4.50;99.90;;;;;;5118033;28;20461;-66
2021/03/16 01:53:31;;;;;;;4.03;2.90;;;4.50;99.90;;;;;;5117545;28;20409;-66
2021/03/16 01:56:01;;;;;;;6.87;3.63;;;4.40;99.90;;;;;;5099647;28;20428;-66
2021/03/16 01:58:48;;;;;;;4.53;2.97;;;4.50;99.90;;;;;;5100702;28;20436;-66
2021/03/16 02:01:35;;;;;;;5.47;2.40;;;4.50;99.90;;;;;;5116949;28;20475;-66
2021/03/16 02:04:22;;;;;;;4.87;3.20;;;4.40;99.90;;;;;;5118916;28;20424;-67
2021/03/16 02:07:15;;;;;;;8.40;2.93;;;4.50;99.90;;;;;;5100347;28;20463;-66
2021/03/16 02:10:09;;;;;;;5.10;3.37;;;4.50;99.90;;;;;;5118486;28;20609;-69
2021/03/16 02:13:01;;;;;;;4.93;4.23;;;4.40;99.90;;;;;;5118964;28;20432;-66
2021/03/16 02:15:50;;;;;;;3.97;3.03;;;4.30;99.90;;;;;;5099484;28;20467;-66
2021/03/16 02:18:40;;;;;;;4.20;2.60;;;4.30;99.90;;;;;;5119398;28;20459;-66
2021/03/16 02:21:29;;;;;;;4.07;2.40;;;4.10;99.90;;;;;;5118307;28;20545;-68
2021/03/16 02:24:28;;;;;;;3.60;2.60;;;4.10;99.90;;;;;;5118011;28;20431;-65
2021/03/16 02:27:17;;;;;;;5.77;3.47;;;4.10;99.90;;;;;;5118294;28;20515;-66
2021/03/16 02:33:22;;;;;;;6.53;2.97;;;4.00;99.90;;;;;;5118921;28;20456;-67
2021/03/16 02:36:11;;;;;;;4.20;2.90;;;4.10;99.90;;;;;;5118999;28;20430;-69
2021/03/16 02:39:01;;;;;;;6.60;2.83;;;4.10;99.90;;;;;;5100864;28;20518;-66
2021/03/16 02:41:50;;;;;;;6.50;3.50;;;4.10;99.90;;;;;;5099679;28;20444;-66
2021/03/16 02:44:38;;;;;;;10.53;3.43;;;4.10;99.90;;;;;;5117592;28;20819;-66
2021/03/16 02:47:26;;;;;;;4.97;2.87;;;4.20;99.90;;;;;;5115626;28;20468;-66
2021/03/16 02:50:14;;;;;;;5.83;3.03;;;4.20;99.90;;;;;;5116077;28;20438;-69
2021/03/16 02:53:15;;;;;;;5.70;3.30;;;4.10;99.90;;;;;;5117063;28;20450;-67
2021/03/16 02:56:03;;;;;;;5.23;3.80;;;4.10;99.90;;;;;;5116468;28;20922;-66
2021/03/16 02:58:51;;;;;;;8.03;3.23;;;4.00;99.90;;;;;;5115779;28;20443;-66
2021/03/16 03:01:37;;;;;;;4.20;2.90;;;4.00;99.90;;;;;;5075731;28;20582;-66
2021/03/16 03:04:27;;;;;;;4.43;3.43;;;4.10;99.90;;;;;;5117714;28;20439;-66
2021/03/16 03:07:14;;;;;;;6.33;3.20;;;4.10;99.90;;;;;;5120298;28;20757;-66
2021/03/16 03:10:00;;;;;;;5.33;2.87;;;4.10;99.90;;;;;;5120609;28;20463;-67
2021/03/16 03:12:48;;;;;;;6.00;3.40;;;4.20;99.90;;;;;;5121248;28;20440;-69
2021/03/16 03:15:34;;;;;;;8.03;4.00;;;4.10;99.90;;;;;;5121347;28;21421;-66
2021/03/16 03:18:21;;;;;;;5.83;3.93;;;4.20;99.90;;;;;;5122532;28;20442;-66
2021/03/16 03:21:13;;;;;;;8.20;4.13;;;4.20;99.90;;;;;;5118889;28;20480;-67
2021/03/16 03:24:06;;;;;;;7.53;4.27;;;4.20;99.90;;;;;;5119190;28;20408;-67
2021/03/16 03:27:00;;;;;;;6.97;4.03;;;4.10;99.90;;;;;;5122024;28;20446;-68
2021/03/16 03:29:48;;;;;;;6.20;4.17;;;4.10;99.90;;;;;;5123410;28;20411;-67
2021/03/16 03:32:34;;;;;;;6.60;4.13;;;4.00;99.90;;;;;;5079970;28;20476;-67
2021/03/16 03:35:22;;;;;;;7.90;3.60;;;4.00;99.90;;;;;;5102856;28;20450;-69
2021/03/16 03:38:11;;;;;;;5.43;3.70;;;4.00;99.90;;;;;;5103493;28;20528;-66
2021/03/16 03:40:59;;;;;;;10.97;4.10;;;4.10;99.90;;;;;;5122100;28;20435;-66
2021/03/16 03:43:53;;;;;;;14.00;4.97;;;4.10;99.90;;;;;;5122930;28;20436;-66
2021/03/16 03:46:41;;;;;;;5.90;3.27;;;4.10;99.90;;;;;;5102792;28;20467;-67
2021/03/16 03:49:28;;;;;;;5.33;3.67;;;4.10;99.90;;;;;;5122388;28;20891;-66
2021/03/16 03:52:15;;;;;;;7.70;3.20;;;4.00;99.90;;;;;;5121529;28;20538;-67
2021/03/16 03:55:03;;;;;;;8.40;3.83;;;4.00;99.90;;;;;;5121495;28;20459;-66
2021/03/16 03:58:03;;;;;;;4.60;3.80;;;4.00;99.90;;;;;;5122379;28;20818;-66
2021/03/16 04:04:02;;;;;;;10.03;3.60;;;4.00;99.90;;;;;;5121968;28;20427;-66
2021/03/16 04:06:48;;;;;;;7.03;4.27;;;4.00;99.90;;;;;;5121691;28;20431;-67
2021/03/16 04:09:34;;;;;;;4.53;3.70;;;4.00;99.90;;;;;;5119883;28;20475;-66
2021/03/16 04:12:24;;;;;;;8.17;3.60;;;4.00;99.90;;;;;;5100806;28;20479;-66
2021/03/16 04:15:15;;;;;;;4.77;3.47;;;4.00;99.90;;;;;;5120045;28;20456;-66
2021/03/16 04:18:01;;;;;;;6.63;3.97;;;4.00;99.90;;;;;;5121220;28;20659;-66
2021/03/16 04:24:01;;;;;;;4.77;3.20;;;3.90;99.90;;;;;;5121463;28;20443;-66
2021/03/16 04:26:48;;;;;;;6.03;3.57;;;3.90;99.90;;;;;;5119567;28;20431;-67
2021/03/16 04:29:35;;;;;;;10.43;4.07;;;3.80;99.90;;;;;;5119251;28;20436;-67
2021/03/16 04:32:21;;;;;;;6.73;3.83;;;3.90;99.90;;;;;;5118428;28;20487;-66
2021/03/16 04:35:08;;;;;;;4.30;3.50;;;3.80;99.90;;;;;;5122043;28;20506;-66
2021/03/16 04:37:54;;;;;;;10.10;4.00;;;3.80;99.90;;;;;;5120825;28;20424;-66
2021/03/16 04:40:42;;;;;;;7.60;3.90;;;3.80;99.90;;;;;;5121610;28;20534;-69
2021/03/16 04:43:28;;;;;;;7.73;3.67;;;3.70;99.90;;;;;;5103888;28;20459;-65
2021/03/16 04:46:16;;;;;;;5.47;3.37;;;3.70;99.90;;;;;;5119686;28;20514;-66
2021/03/16 04:49:04;;;;;;;5.43;2.97;;;3.80;99.90;;;;;;5121624;28;20895;-67
2021/03/16 04:51:52;;;;;;;8.03;4.23;;;3.80;99.90;;;;;;5121165;28;20463;-66
2021/03/16 04:54:38;;;;;;;7.70;3.43;;;3.80;99.90;;;;;;5121396;28;20787;-68
2021/03/16 04:57:24;;;;;;;4.80;2.97;;;3.80;99.90;;;;;;5121019;28;20435;-66
2021/03/16 05:00:11;;;;;;;5.10;3.13;;;3.80;99.90;;;;;;5122985;28;20522;-66
2021/03/16 05:02:58;;;;;;;9.13;3.57;;;3.70;99.90;;;;;;5123551;28;20508;-68
2021/03/16 05:05:45;;;;;;;4.87;3.67;;;3.70;99.90;;;;;;5124240;28;20443;-66
2021/03/16 05:08:31;;;;;;;4.37;2.50;;;3.70;99.90;;;;;;5123736;28;20550;-67
2021/03/16 05:11:17;;;;;;;4.10;3.00;;;3.70;99.90;;;;;;5130842;28;20471;-70
2021/03/16 05:14:06;;;;;;;6.20;3.37;;;3.70;99.90;;;;;;5113705;28;20461;-67
2021/03/16 05:16:53;;;;;;;6.37;3.17;;;3.70;99.90;;;;;;5088791;28;20574;-68
2021/03/16 05:19:41;;;;;;;4.50;2.73;;;3.70;99.90;;;;;;5118886;28;20432;-69
2021/03/16 05:22:27;;;;;;;4.70;2.70;;;3.70;99.90;;;;;;5121444;28;20471;-67
2021/03/16 05:25:15;;;;;;;5.60;2.73;;;3.70;99.90;;;;;;5120092;28;20406;-66
2021/03/16 05:28:01;;;;;;;4.23;2.63;;;3.70;99.90;;;;;;5119126;28;20428;-66
2021/03/16 05:30:47;;;;;;;4.97;2.10;;;3.70;99.90;;;;;;5119842;28;20582;-71
2021/03/16 05:33:34;;;;;;;3.63;2.67;;;3.80;99.90;;;;;;5121405;28;20572;-67
2021/03/16 05:36:21;;;;;;;6.53;3.13;;;3.70;99.90;;;;;;5121939;28;20444;-69
2021/03/16 05:39:07;;;;;;;5.10;2.50;;;3.70;99.90;;;;;;5120963;28;20442;-67
2021/03/16 05:41:54;;;;;;;4.30;2.70;;;3.70;99.90;;;;;;5120571;28;20444;-66
2021/03/16 05:44:42;;;;;;;6.57;2.57;;;3.70;99.90;;;;;;5120203;28;20424;-66
2021/03/16 05:47:28;;;;;;;7.27;3.50;;;3.70;99.90;;;;;;5101916;28;20479;-66
2021/03/16 05:50:16;;;;;;;3.90;2.50;;;3.80;99.90;;;;;;5117117;28;20428;-66
2021/03/16 05:53:05;;;;;;;3.10;2.33;;;3.80;99.90;;;;;;5117230;28;20431;-66
2021/03/16 05:55:51;;;;;;;5.40;2.37;;;3.80;99.90;;;;;;5116226;28;20467;-65
2021/03/16 05:58:37;;;;;;;6.90;3.20;;;3.80;99.90;;;;;;5116782;28;20415;-65
2021/03/16 06:01:22;;;;;;;3.60;2.53;;;3.80;99.90;;;;;;5117857;28;20484;-66
2021/03/16 06:04:08;;;;;;;5.30;2.47;;;3.80;99.90;;;;;;5118522;28;20435;-67
2021/03/16 06:06:57;;;;;;;4.43;2.53;;;3.80;99.90;;;;;;5118760;28;20497;-66
2021/03/16 06:09:44;;;;;;;6.93;4.80;;;3.80;99.90;;;;;;5101460;28;20497;-66
2021/03/16 06:12:32;;;;;;;6.30;2.90;;;3.90;99.90;;;;;;5119989;28;20456;-67
2021/03/16 06:15:20;;;;;;;3.47;2.43;;;3.90;99.90;;;;;;5119205;28;20436;-69
2021/03/16 06:18:08;;;;;;;10.43;3.27;;;3.90;99.90;;;;;;5119318;28;20436;-67
2021/03/16 06:21:02;;;;;;;5.93;3.47;;;3.90;99.90;;;;;;5119311;28;20513;-65
2021/03/16 06:23:52;;;;;;;6.17;3.47;;;3.90;99.90;;;;;;5119284;28;20564;-66
2021/03/16 06:26:47;;;;;;;5.00;2.60;;;3.90;99.90;;;;;;5126182;28;20440;-66
2021/03/16 06:29:41;;;;;;;4.90;3.03;;;4.10;99.90;;;;;;5125889;28;20432;-65
2021/03/16 06:32:34;;;;;;;8.23;3.27;;;4.20;99.90;;;;;;5097095;28;20599;-66
2021/03/16 06:35:23;;;;;;;7.07;3.23;;;4.20;99.90;;;;;;5098134;28;20428;-67
2021/03/16 06:38:10;;;;;;;5.70;3.43;;;4.30;99.90;;;;;;5099168;28;20429;-67
2021/03/16 06:41:08;;;;;;;8.70;3.10;;;4.40;99.90;;;;;;5100156;28;20908;-66
2021/03/16 06:44:04;;;;;;;6.50;3.10;;;4.40;99.90;;;;;;5101223;28;20432;-66
2021/03/16 06:46:55;;;;;;;13.80;4.70;;;4.40;99.90;;;;;;5100443;28;20484;-67
2021/03/16 06:49:42;;;;;;;5.63;3.17;;;4.40;99.90;;;;;;5102762;28;20429;-65
2021/03/16 06:52:28;;;;;;;6.07;3.80;;;4.40;99.90;;;;;;5101279;28;20838;-64
2021/03/16 06:55:17;;;;;;;6.10;3.53;;;4.70;99.90;;;;;;5099882;28;20412;-68
2021/03/16 06:58:05;;;;;;;4.53;3.20;;;4.60;99.90;;;;;;5083912;28;20441;-67
2021/03/16 07:01:07;;;;;;;4.80;3.00;;;4.60;99.90;;;;;;5098690;28;20476;-67
2021/03/16 07:03:53;;;;;;;5.70;3.60;;;4.50;99.90;;;;;;5099588;28;20428;-65
2021/03/16 07:06:40;;;;;;;7.60;3.23;;;4.50;99.90;;;;;;5098680;28;20428;-66
2021/03/16 07:09:30;;;;;;;8.93;2.90;;;4.60;99.90;;;;;;5100725;28;20526;-66
2021/03/16 07:12:23;;;;;;;6.33;4.53;;;4.60;99.90;;;;;;5084427;28;20947;-66
2021/03/16 07:15:11;;;;;;;8.50;3.10;;;4.40;99.90;;;;;;5101853;28;20445;-65
2021/03/16 07:17:58;;;;;;;3.57;2.70;;;4.40;99.90;;;;;;5101177;28;20453;-65
2021/03/16 07:20:48;;;;;;;8.77;4.43;;;4.30;99.90;;;;;;5100169;28;20440;-66
2021/03/16 07:24:05;;;;;;;8.17;3.10;;;4.30;99.90;;;;;;5102109;28;20433;-65
2021/03/16 07:26:53;;;;;;;10.80;4.10;;;4.50;99.90;;;;;;5099432;28;20432;-67
2021/03/16 07:29:41;;;;;;;6.60;3.30;;;4.60;99.90;;;;;;5098598;28;20429;-66
2021/03/16 07:32:28;;;;;;;7.10;2.93;;;4.60;99.90;;;;;;5098922;28;20523;-66
2021/03/16 07:35:41;;;;;;;3.17;2.87;;;4.50;99.90;;;;;;5099639;28;20432;-67
2021/03/16 07:38:28;;;;;;;5.50;3.10;;;4.60;99.90;;;;;;5098810;28;20935;-65
2021/03/16 07:41:19;;;;;;;6.40;3.87;;;4.70;99.90;;;;;;5081347;28;20441;-66
2021/03/16 07:44:10;;;;;;;7.13;2.63;;;5.40;99.90;;;;;;5099854;28;20464;-66
2021/03/16 07:46:59;;;;;;;8.77;2.83;;;9.10;99.90;;;;;;5113398;28;20476;-67
2021/03/16 07:49:46;;;;;;;3.60;3.07;;;11.80;94.60;;;;;;5099274;28;20406;-69
2021/03/16 07:52:44;;;;;;;4.33;2.67;;;11.70;90.20;;;;;;5117791;28;20792;-66
2021/03/16 07:55:31;;;;;;;5.53;4.60;;;10.50;92.80;;;;;;5118333;28;20440;-67
2021/03/16 07:58:25;;;;;;;4.57;2.10;;;10.50;94.10;;;;;;5117459;28;20515;-66
2021/03/16 08:01:16;;;;;;;3.00;1.90;;;9.90;94.70;;;;;;5116970;28;20450;-67
2021/03/16 08:04:05;;;;;;;6.13;2.60;;;8.50;97.10;;;;;;5118036;28;20439;-68
2021/03/16 08:06:58;;;;;;;4.50;2.23;;;6.50;99.90;;;;;;5117953;28;20452;-67
2021/03/16 08:09:47;;;;;;;3.47;1.67;;;5.80;99.90;;;;;;5117360;28;20569;-67
2021/03/16 08:12:33;;;;;;;3.50;2.00;;;6.20;99.90;;;;;;5117357;28;20437;-69
2021/03/16 08:15:20;;;;;;;5.73;2.17;;;6.20;99.90;;;;;;5117529;28;20433;-66
2021/03/16 08:18:14;;;;;;;2.47;1.57;;;5.70;99.90;;;;;;5100369;28;20447;-66
2021/03/16 08:21:08;;;;;;;3.70;2.07;;;6.20;99.90;;;;;;5118568;28;20438;-66
2021/03/16 08:24:03;;;;;;;6.87;2.20;;;6.30;99.90;;;;;;5118274;28;20533;-68
2021/03/16 08:26:53;;;;;;;4.70;2.30;;;6.80;99.90;;;;;;5101554;28;20442;-66
2021/03/16 08:29:43;;;;;;;5.03;1.90;;;6.60;99.90;;;;;;5119958;28;20528;-67
2021/03/16 08:32:30;;;;;;;5.50;1.83;;;6.70;99.90;;;;;;5117710;28;20495;-67
2021/03/16 08:35:47;;;;;;;5.00;1.87;;;6.40;99.90;;;;;;5101275;28;20841;-67
2021/03/16 08:38:34;;;;;;;5.10;2.07;;;6.10;99.90;;;;;;5119987;28;20426;-67
2021/03/16 08:41:21;;;;;;;3.57;1.90;;;6.40;99.90;;;;;;5119909;28;20472;-66
2021/03/16 08:44:08;;;;;;;2.17;1.83;;;7.40;99.90;;;;;;5119485;28;20434;-67
2021/03/16 08:47:45;;;;;;;1.73;1.57;;;7.80;97.80;;;;;;5100639;28;20482;-67
2021/03/16 08:50:39;;;;;;;2.50;1.80;;;7.90;96.90;;;;;;5118474;28;20429;-66
2021/03/16 08:53:25;;;;;;;4.50;1.93;;;8.50;96.30;;;;;;5099273;28;20425;-67
2021/03/16 08:56:18;;;;;;;3.63;1.87;;;7.50;96.60;;;;;;5117856;28;20438;-67
2021/03/16 08:59:06;;;;;;;2.60;1.37;;;7.00;97.50;;;;;;5118292;28;20440;-68
2021/03/16 09:02:39;;;;;;;5.13;2.10;;;7.50;96.20;;;;;;5111838;28;20549;-67
2021/03/16 09:05:28;;;;;;;2.37;1.73;;;6.60;97.10;;;;;;5116127;28;20440;-66
2021/03/16 09:08:14;;;;;;;2.67;1.43;;;6.70;97.40;;;;;;5116864;28;20481;-69
2021/03/16 09:11:02;;;;;;;7.57;1.80;;;6.90;97.50;;;;;;5116495;28;20542;-66
2021/03/16 09:13:48;;;;;;;1.83;1.60;;;7.50;96.40;;;;;;5111481;28;20864;-66
2021/03/16 09:16:38;;;;;;;2.80;1.10;;;6.90;97.20;;;;;;5112895;28;20451;-68
2021/03/16 09:19:26;;;;;;;5.30;1.63;;;6.50;97.30;;;;;;5118082;28;20403;-66
2021/03/16 09:22:15;;;;;;;2.97;2.30;;;6.30;97.60;;;;;;5118772;28;20573;-66
2021/03/16 09:25:02;;;;;;;3.60;1.43;;;5.90;97.70;;;;;;5118901;28;20439;-66
2021/03/16 09:27:49;;;;;;;5.10;1.47;;;5.50;98.30;;;;;;5117898;28;20470;-67
2021/03/16 09:30:37;;;;;;;4.13;1.80;;;5.60;98.90;;;;;;5119400;28;20467;-68
2021/03/16 09:33:25;;;;;;;6.53;3.13;;;5.80;98.40;;;;;;5122047;28;20457;-67
2021/03/16 09:36:13;;;;;;;4.97;1.90;;;6.10;98.40;;;;;;5131232;28;20474;-66
2021/03/16 09:38:59;;;;;;;6.93;1.80;;;6.20;97.90;;;;;;5119650;28;20464;-68
2021/03/16 09:41:36;;;;;;;2.10;1.50;;;7.70;96.90;;;;;;5099323;28;20420;-67
2021/03/16 09:44:04;;;;;;;4.67;2.23;;;9.50;94.10;;;;;;5097850;28;20908;-65
2021/03/16 09:46:31;;;;;;;4.07;2.23;;;9.20;91.00;;;;;;5067905;28;20450;-66
2021/03/16 09:48:59;;;;;;;3.60;1.57;;;8.60;92.00;;;;;;5095765;28;20436;-67
2021/03/16 09:51:28;;;;;;;3.37;1.57;;;8.40;93.40;;;;;;5095761;28;20462;-66
2021/03/16 09:53:57;;;;;;;5.43;1.57;;;8.30;93.80;;;;;;5095991;28;20429;-67
2021/03/16 09:56:28;;;;;;;5.70;2.00;;;7.60;94.60;;;;;;5097261;28;20410;-67
2021/03/16 09:58:59;;;;;;;4.00;1.40;;;7.60;95.00;;;;;;5096513;28;20439;-70
2021/03/16 10:01:27;;;;;;;4.80;1.87;;;7.90;95.00;;;;;;5107610;28;20464;-66
2021/03/16 10:03:56;;;;;;;3.90;1.83;;;7.70;94.60;;;;;;5117491;28;20408;-68
2021/03/16 10:06:35;;;;;;;7.83;2.37;;;7.50;95.10;;;;;;5117116;28;20507;-65
2021/03/16 10:09:14;;;;;;;4.70;1.70;;;7.40;94.80;;;;;;5117162;28;20467;-66
2021/03/16 10:11:42;;;;;;;2.67;1.33;;;7.20;94.50;;;;;;5117960;28;20884;-68
2021/03/16 10:14:10;;;;;;;3.43;1.50;;;7.10;94.50;;;;;;5103071;28;20431;-66
2021/03/16 10:16:39;;;;;;;1.87;1.27;;;6.90;94.60;;;;;;5103577;28;20445;-68
2021/03/16 10:19:07;;;;;;;1.93;1.00;;;6.60;95.20;;;;;;5122296;28;20434;-66
2021/03/16 10:21:38;;;;;;;3.60;2.03;;;6.70;95.60;;;;;;5121399;28;20449;-66
2021/03/16 10:24:06;;;;;;;4.93;1.60;;;6.70;95.30;;;;;;5122212;28;20507;-66
2021/03/16 10:26:34;;;;;;;3.20;1.27;;;6.90;95.40;;;;;;5122074;28;20413;-69
2021/03/16 10:29:10;;;;;;;5.37;2.30;;;7.50;94.60;;;;;;5119747;28;20484;-66
2021/03/16 10:31:37;;;;;;;3.30;1.37;;;8.00;93.10;;;;;;5100466;28;20456;-66
2021/03/16 10:34:06;;;;;;;2.50;1.03;;;7.70;93.00;;;;;;5119725;28;20915;-66
2021/03/16 10:39:26;;;;;;;3.00;2.50;;;8.10;93.20;;;;;;5120030;28;20398;-67
2021/03/16 10:41:54;;;;;;;4.20;1.80;;;8.00;92.20;;;;;;5120199;28;20752;-66
2021/03/16 10:44:22;;;;;;;5.83;1.90;;;7.50;92.30;;;;;;5120434;28;20430;-66
2021/03/16 10:46:49;;;;;;;6.53;1.57;;;7.40;92.60;;;;;;5102058;28;20566;-69
2021/03/16 10:49:17;;;;;;;3.50;1.40;;;7.10;92.20;;;;;;5121616;28;20434;-69
2021/03/16 10:51:46;;;;;;;5.47;1.73;;;7.10;93.10;;;;;;5122860;28;20432;-67
2021/03/16 10:54:14;;;;;;;3.13;1.30;;;7.80;92.90;;;;;;5123714;28;20438;-66
2021/03/16 10:56:41;;;;;;;3.30;1.80;;;7.80;93.00;;;;;;5121265;28;20493;-66
2021/03/16 10:59:09;;;;;;;8.63;1.63;;;7.70;93.20;;;;;;5119960;28;20467;-66
2021/03/16 11:01:37;;;;;;;2.27;1.67;;;7.80;93.40;;;;;;5117295;28;20448;-65
2021/03/16 11:04:09;;;;;;;2.50;1.33;;;7.50;94.20;;;;;;5100587;28;20420;-67
2021/03/16 11:06:37;;;;;;;2.53;1.37;;;7.30;94.40;;;;;;5102043;28;20406;-69
2021/03/16 11:09:06;;;;;;;4.90;2.00;;;7.40;94.10;;;;;;5118865;28;20469;-66
2021/03/16 11:11:33;;;;;;;2.87;1.57;;;7.50;94.10;;;;;;5110990;28;20441;-67
2021/03/16 11:14:01;;;;;;;1.80;1.30;;;7.70;93.10;;;;;;5120338;28;20435;-67
2021/03/16 11:16:29;;;;;;;2.10;1.20;;;7.60;93.20;;;;;;5119143;28;20469;-67
2021/03/16 11:18:56;;;;;;;1.50;1.10;;;7.30;93.00;;;;;;5119326;28;20431;-67
2021/03/16 11:21:25;;;;;;;4.30;2.10;;;7.30;93.50;;;;;;5117674;28;20785;-66
2021/03/16 11:23:53;;;;;;;1.53;1.30;;;7.70;92.90;;;;;;5117678;28;20605;-67
2021/03/16 11:26:21;;;;;;;3.10;1.90;;;7.30;92.80;;;;;;5117191;28;20521;-70
2021/03/16 11:28:49;;;;;;;2.70;1.80;;;7.30;93.00;;;;;;5118741;28;20188;-70
2021/03/16 11:31:16;;;;;;;1.27;1.00;;;7.20;93.30;;;;;;5116942;28;20466;-66
2021/03/16 11:34:11;;;;;;;2.60;1.27;;;7.30;93.70;;;;;;5119127;28;20807;-66
2021/03/16 11:36:58;;;;;;;3.80;1.73;;;7.50;93.30;;;;;;5117637;28;20893;-65
2021/03/16 11:39:45;;;;;;;2.83;1.50;;;7.50;93.80;;;;;;5118423;28;20427;-66
2021/03/16 11:42:32;;;;;;;4.77;1.77;;;7.40;94.10;;;;;;5118206;28;20429;-66
2021/03/16 11:45:19;;;;;;;6.07;2.67;;;7.50;93.60;;;;;;5116767;28;20417;-66
2021/03/16 11:48:11;;;;;;;4.17;1.80;;;7.50;94.10;;;;;;5116844;28;20435;-69
2021/03/16 11:50:58;;;;;;;3.40;2.00;;;7.00;94.10;;;;;;5118454;28;20442;-66
2021/03/16 11:53:45;;;;;;;7.93;2.00;;;7.10;94.80;;;;;;5118609;28;20451;-66
2021/03/16 11:56:31;;;;;;;2.33;2.10;;;7.30;94.40;;;;;;5100525;28;20439;-66
2021/03/16 11:59:21;;;;;;;2.90;1.80;;;7.30;93.70;;;;;;5119832;28;20438;-65
2021/03/16 12:02:07;;;;;;;3.27;1.30;;;6.80;94.10;;;;;;5100366;28;20473;-66
2021/03/16 12:04:54;;;;;;;1.37;1.20;;;6.80;94.40;;;;;;5081228;28;20443;-66
2021/03/16 12:07:40;;;;;;;4.10;1.30;;;7.00;94.10;;;;;;5099550;28;20443;-66
2021/03/16 12:10:28;;;;;;;3.63;1.40;;;7.20;94.30;;;;;;5078315;28;20549;-66
2021/03/16 12:13:16;;;;;;;2.00;1.30;;;7.50;93.20;;;;;;5078344;28;20443;-66
2021/03/16 12:16:06;;;;;;;1.47;1.17;;;7.50;93.20;;;;;;5076942;28;20503;-66
2021/03/16 12:18:52;;;;;;;1.93;1.33;;;7.50;93.10;;;;;;5072505;28;20431;-66
2021/03/16 12:21:38;;;;;;;3.67;1.90;;;7.60;93.30;;;;;;5070453;28;20433;-66
2021/03/16 12:24:25;;;;;;;2.07;1.30;;;7.90;92.50;;;;;;5077914;28;20487;-69
2021/03/16 12:27:10;;;;;;;2.23;2.00;;;7.80;92.40;;;;;;5076934;28;20436;-66
2021/03/16 12:29:56;;;;;;;2.60;1.60;;;7.10;92.90;;;;;;5077012;28;20456;-67
2021/03/16 12:35:57;;;;;;;4.30;1.73;;;7.20;93.50;;;;;;5077823;28;20440;-66
2021/03/16 12:38:44;;;;;;;2.30;1.40;;;7.30;93.80;;;;;;5078491;28;20415;-66
2021/03/16 12:41:30;;;;;;;3.80;1.50;;;7.20;94.00;;;;;;5077694;28;20553;-67
2021/03/16 12:44:19;;;;;;;2.70;1.30;;;7.20;94.40;;;;;;5078710;28;20430;-68
2021/03/16 12:47:06;;;;;;;4.00;1.53;;;6.90;94.90;;;;;;5077683;28;21109;-66
2021/03/16 12:50:00;;;;;;;4.60;1.60;;;7.20;95.20;;;;;;5077716;28;20431;-66
2021/03/16 12:53:10;;;;;;;3.33;1.00;;;7.50;95.10;;;;;;5045296;28;20531;-68
2021/03/16 12:55:56;;;;;;;5.27;1.67;;;7.80;94.90;;;;;;5077869;28;20441;-66
2021/03/16 12:58:43;;;;;;;2.90;1.80;;;7.70;94.50;;;;;;5077696;28;20440;-66
2021/03/16 13:01:29;;;;;;;5.97;2.00;;;7.50;94.40;;;;;;5076446;28;20498;-66
2021/03/16 13:04:15;;;;;;;6.80;1.77;;;7.00;95.10;;;;;;5078324;28;20415;-66
2021/03/16 13:07:02;;;;;;;3.93;2.10;;;7.30;96.80;;;;;;5077935;28;20893;-66
2021/03/16 13:09:50;;;;;;;3.40;1.63;;;7.20;96.10;;;;;;5095508;28;20499;-66
2021/03/16 13:12:36;;;;;;;2.70;1.77;;;7.10;96.10;;;;;;5098618;28;20545;-66
2021/03/16 13:15:23;;;;;;;2.70;1.67;;;7.00;95.80;;;;;;5100025;28;20512;-66
2021/03/16 13:18:10;;;;;;;3.60;1.40;;;7.00;95.70;;;;;;5119366;28;20456;-65
2021/03/16 13:21:02;;;;;;;1.33;1.07;;;6.90;95.40;;;;;;5118954;28;20545;-65
2021/03/16 13:23:50;;;;;;;6.57;1.30;;;6.90;95.50;;;;;;5118771;28;20734;-67
2021/03/16 13:26:36;;;;;;;2.80;1.33;;;7.10;95.00;;;;;;5118350;28;20464;-68
2021/03/16 13:29:22;;;;;;;12.37;2.17;;;7.10;94.80;;;;;;5118972;28;20433;-67
2021/03/16 13:32:09;;;;;;;5.73;2.07;;;7.60;94.10;;;;;;5116355;28;20464;-69
2021/03/16 13:34:56;;;;;;;2.77;1.30;;;7.80;94.00;;;;;;5118280;28;20413;-67
2021/03/16 13:37:43;;;;;;;6.23;2.03;;;8.00;93.30;;;;;;5118609;28;20995;-65
2021/03/16 13:40:31;;;;;;;4.90;2.17;;;7.70;93.70;;;;;;5119806;28;20892;-68
2021/03/16 13:43:17;;;;;;;2.70;1.40;;;7.50;93.30;;;;;;5119745;28;20450;-67
2021/03/16 13:46:03;;;;;;;4.20;1.30;;;7.20;93.80;;;;;;5115364;28;20784;-66
2021/03/16 13:48:50;;;;;;;1.33;1.13;;;7.50;93.30;;;;;;5117287;28;20437;-66
2021/03/16 13:51:36;;;;;;;2.00;1.53;;;7.80;92.70;;;;;;5117413;28;20447;-66
2021/03/16 13:54:22;;;;;;;5.30;1.93;;;7.70;92.90;;;;;;5116676;28;20580;-65
2021/03/16 13:57:09;;;;;;;3.70;1.80;;;7.90;92.70;;;;;;5122776;28;20439;-65
2021/03/16 13:59:57;;;;;;;2.20;1.30;;;7.70;92.70;;;;;;5129019;28;20416;-68
2021/03/16 14:02:44;;;;;;;4.30;1.73;;;7.30;92.70;;;;;;5117427;28;20482;-66
2021/03/16 14:05:30;;;;;;;2.23;1.47;;;7.10;93.20;;;;;;5099544;28;20441;-65
2021/03/16 14:08:16;;;;;;;4.47;1.40;;;7.50;93.40;;;;;;5096814;28;20473;-65
2021/03/16 14:11:02;;;;;;;3.73;2.03;;;7.90;92.60;;;;;;5115584;28;20450;-67
2021/03/16 14:13:49;;;;;;;1.43;1.33;;;7.70;92.90;;;;;;5116019;28;20463;-66
2021/03/16 14:16:35;;;;;;;3.10;1.47;;;7.70;92.80;;;;;;5114580;28;20474;-66
2021/03/16 14:19:22;;;;;;;2.93;2.10;;;7.50;93.10;;;;;;5114842;28;20408;-70
2021/03/16 14:22:13;;;;;;;4.43;1.50;;;7.50;93.40;;;;;;5097175;28;20789;-66
2021/03/16 14:25:01;;;;;;;1.90;1.80;;;7.30;93.90;;;;;;5097011;28;20600;-66
2021/03/16 14:27:47;;;;;;;2.20;1.23;;;7.30;93.70;;;;;;5115656;28;20436;-66
2021/03/16 14:30:34;;;;;;;2.13;1.50;;;7.40;93.60;;;;;;5115044;28;20875;-66
2021/03/16 14:33:21;;;;;;;2.37;1.53;;;7.40;93.20;;;;;;5116099;28;20550;-67
2021/03/16 14:36:07;;;;;;;3.90;1.37;;;7.50;93.10;;;;;;5116567;28;20418;-68